createdAt,value
2022-12-12T00:01:20.228Z,5.69
2022-12-12T00:03:48.085Z,5.83
2022-12-12T00:06:17.335Z,5.69
2022-12-12T00:08:45.126Z,5.69
2022-12-12T00:11:13.113Z,5.69
2022-12-12T00:13:41.100Z,5.53
2022-12-12T00:16:10.078Z,5.45
2022-12-12T00:18:38.443Z,5.40
2022-12-12T00:21:08.072Z,5.40
2022-12-12T00:23:37.424Z,5.54
2022-12-12T00:26:08.079Z,5.67
2022-12-12T00:28:36.234Z,5.68
2022-12-12T00:31:04.224Z,5.66
2022-12-12T00:33:32.119Z,5.51
2022-12-12T00:36:00.305Z,5.37
2022-12-12T00:38:28.129Z,5.43
2022-12-12T00:40:58.956Z,5.60
2022-12-12T00:43:27.292Z,5.67
2022-12-12T00:45:55.198Z,5.60
2022-12-12T00:48:23.045Z,5.61
2022-12-12T00:50:51.305Z,5.65
2022-12-12T00:53:19.188Z,5.47
2022-12-12T00:55:47.303Z,5.49
2022-12-12T00:58:16.427Z,5.48
2022-12-12T01:00:44.238Z,5.44
2022-12-12T01:03:12.039Z,5.42
2022-12-12T01:05:39.998Z,5.36
2022-12-12T01:08:07.889Z,5.47
2022-12-12T01:10:35.869Z,5.57
2022-12-12T01:13:03.935Z,5.70
2022-12-12T01:15:33.731Z,5.69
2022-12-12T01:18:01.750Z,5.69
2022-12-12T01:20:30.440Z,5.72
2022-12-12T01:22:58.268Z,5.49
2022-12-12T01:25:26.451Z,5.56
2022-12-12T01:27:54.347Z,5.43
2022-12-12T01:30:23.999Z,5.30
2022-12-12T01:32:53.256Z,5.16
2022-12-12T01:35:21.164Z,5.44
2022-12-12T01:37:49.460Z,5.55
2022-12-12T01:40:21.073Z,5.68
2022-12-12T01:42:49.380Z,5.35
2022-12-12T01:45:54.755Z,5.32
2022-12-12T01:48:26.775Z,5.21
2022-12-12T01:50:55.388Z,5.32
2022-12-12T01:53:25.514Z,5.39
2022-12-12T01:55:53.506Z,5.43
2022-12-12T01:58:21.567Z,5.41
2022-12-12T02:00:49.492Z,5.53
2022-12-12T02:03:17.394Z,5.74
2022-12-12T02:05:50.423Z,5.63
2022-12-12T02:08:19.729Z,5.71
2022-12-12T02:10:47.599Z,5.66
2022-12-12T02:13:19.048Z,5.77
2022-12-12T02:15:53.242Z,5.73
2022-12-12T02:18:23.826Z,5.75
2022-12-12T02:21:02.748Z,5.64
2022-12-12T02:24:06.752Z,5.59
2022-12-12T02:26:51.455Z,5.63
2022-12-12T02:29:56.033Z,5.65
2022-12-12T02:32:30.541Z,5.54
2022-12-12T02:35:05.681Z,5.59
2022-12-12T02:37:40.560Z,5.63
2022-12-12T02:40:14.405Z,5.64
2022-12-12T02:42:45.849Z,5.69
2022-12-12T02:45:18.778Z,5.54
2022-12-12T02:47:49.609Z,5.60
2022-12-12T02:50:20.074Z,5.46
2022-12-12T02:52:48.997Z,5.50
2022-12-12T02:55:17.320Z,5.58
2022-12-12T02:57:45.320Z,5.73
2022-12-12T03:00:15.211Z,5.80
2022-12-12T03:03:26.666Z,5.73
2022-12-12T03:06:24.642Z,5.65
2022-12-12T03:09:00.756Z,5.51
2022-12-12T03:11:35.180Z,5.42
2022-12-12T03:14:10.067Z,5.56
2022-12-12T03:16:40.686Z,5.57
2022-12-12T03:19:12.791Z,5.46
2022-12-12T03:21:47.518Z,5.57
2022-12-12T03:24:22.041Z,5.59
2022-12-12T03:26:53.287Z,5.43
2022-12-12T03:29:25.548Z,5.45
2022-12-12T03:31:56.079Z,5.64
2022-12-12T03:34:26.603Z,5.65
2022-12-12T03:36:57.424Z,5.54
2022-12-12T03:39:29.622Z,5.63
2022-12-12T03:42:01.029Z,5.62
2022-12-12T03:44:36.828Z,5.58
2022-12-12T03:47:13.865Z,5.51
2022-12-12T03:49:44.540Z,5.55
2022-12-12T03:52:18.160Z,5.59
2022-12-12T03:54:49.369Z,5.50
2022-12-12T03:57:20.238Z,5.48
2022-12-12T03:59:53.159Z,5.64
2022-12-12T04:02:23.673Z,5.65
2022-12-12T04:07:39.167Z,5.64
2022-12-12T04:10:25.449Z,5.56
2022-12-12T04:13:03.426Z,5.50
2022-12-12T04:15:47.264Z,5.56
2022-12-12T04:18:20.351Z,5.53
2022-12-12T04:21:15.215Z,5.43
2022-12-12T04:23:55.272Z,5.38
2022-12-12T04:26:41.880Z,5.38
2022-12-12T04:29:18.335Z,5.43
2022-12-12T04:31:50.908Z,5.44
2022-12-12T04:34:24.993Z,5.42
2022-12-12T04:36:53.576Z,5.39
2022-12-12T04:39:24.312Z,5.29
2022-12-12T04:41:53.774Z,5.28
2022-12-12T04:44:23.268Z,5.33
2022-12-12T04:46:53.849Z,5.36
2022-12-12T04:49:24.892Z,5.45
2022-12-12T04:51:55.295Z,5.36
2022-12-12T04:54:28.868Z,5.35
2022-12-12T04:57:00.076Z,5.30
2022-12-12T04:59:28.191Z,5.21
2022-12-12T05:02:00.655Z,5.08
2022-12-12T05:04:32.060Z,4.75
2022-12-12T05:07:03.687Z,4.60
2022-12-12T05:09:33.216Z,4.30
2022-12-12T05:12:01.073Z,4.55
2022-12-12T05:14:31.004Z,4.83
2022-12-12T05:17:03.100Z,5.08
2022-12-12T05:19:31.061Z,5.08
2022-12-12T05:21:58.853Z,5.01
2022-12-12T05:24:30.741Z,5.04
2022-12-12T05:27:00.224Z,4.93
2022-12-12T05:29:28.084Z,4.98
2022-12-12T05:31:56.224Z,5.05
2022-12-12T05:34:24.103Z,5.27
2022-12-12T05:36:52.007Z,5.35
2022-12-12T05:39:19.807Z,5.41
2022-12-12T05:41:47.743Z,5.36
2022-12-12T05:44:16.983Z,5.41
2022-12-12T05:46:45.608Z,5.29
2022-12-12T05:49:13.500Z,5.20
2022-12-12T05:51:41.819Z,5.11
2022-12-12T05:54:09.671Z,5.10
2022-12-12T05:56:37.481Z,5.09
2022-12-12T05:59:05.586Z,4.63
2022-12-12T06:01:35.235Z,4.76
2022-12-12T06:04:03.406Z,4.61
2022-12-12T06:06:31.587Z,4.72
2022-12-12T06:08:59.335Z,4.71
2022-12-12T06:11:27.189Z,4.81
2022-12-12T06:13:54.992Z,5.01
2022-12-12T06:16:22.984Z,5.10
2022-12-12T06:18:56.177Z,5.19
2022-12-12T06:21:24.294Z,5.17
2022-12-12T06:23:52.505Z,5.16
2022-12-12T06:26:21.751Z,5.26
2022-12-12T06:28:49.942Z,5.20
2022-12-12T06:31:18.310Z,5.23
2022-12-12T06:33:46.436Z,5.23
2022-12-12T06:36:23.693Z,5.06
2022-12-12T06:38:51.986Z,5.12
2022-12-12T06:41:20.543Z,5.11
2022-12-12T06:43:48.653Z,5.22
2022-12-12T06:46:18.836Z,5.19
2022-12-12T06:48:47.912Z,5.20
2022-12-12T06:51:19.283Z,5.06
2022-12-12T06:53:47.196Z,4.94
2022-12-12T06:56:16.842Z,4.94
2022-12-12T06:58:44.850Z,4.90
2022-12-12T07:01:13.707Z,4.90
2022-12-12T07:03:41.745Z,5.08
2022-12-12T07:06:10.157Z,5.12
2022-12-12T07:08:39.552Z,5.10
2022-12-12T07:11:08.998Z,5.05
2022-12-12T07:13:36.859Z,5.09
2022-12-12T07:16:05.093Z,5.08
2022-12-12T07:18:33.104Z,5.11
2022-12-12T07:21:00.868Z,5.13
2022-12-12T07:23:28.802Z,5.15
2022-12-12T07:25:58.044Z,5.09
2022-12-12T07:28:25.993Z,5.16
2022-12-12T07:30:53.940Z,5.17
2022-12-12T07:33:21.952Z,5.11
2022-12-12T07:35:49.867Z,5.14
2022-12-12T07:38:17.782Z,5.09
2022-12-12T07:40:45.692Z,5.11
2022-12-12T07:43:14.910Z,5.11
2022-12-12T07:45:45.055Z,5.17
2022-12-12T07:48:12.906Z,5.25
2022-12-12T07:50:41.268Z,5.22
2022-12-12T07:53:09.333Z,5.05
2022-12-12T07:55:40.552Z,5.18
2022-12-12T07:58:08.389Z,5.25
2022-12-12T08:00:37.608Z,5.34
2022-12-12T08:03:05.478Z,5.37
2022-12-12T08:05:33.392Z,5.43
2022-12-12T08:08:01.348Z,5.34
2022-12-12T08:10:29.255Z,5.25
2022-12-12T08:12:57.057Z,5.29
2022-12-12T08:15:24.930Z,5.37
2022-12-12T08:17:54.166Z,5.55
2022-12-12T08:20:22.991Z,5.19
2022-12-12T08:22:50.904Z,5.13
2022-12-12T08:25:18.818Z,5.17
2022-12-12T08:27:46.703Z,5.12
2022-12-12T08:30:14.962Z,5.13
2022-12-12T08:32:42.851Z,5.15
2022-12-12T08:35:12.546Z,5.12
2022-12-12T08:37:40.603Z,5.19
2022-12-12T08:40:09.623Z,5.10
2022-12-12T08:42:37.514Z,4.93
2022-12-12T08:45:06.199Z,4.95
2022-12-12T08:47:34.342Z,5.04
2022-12-12T08:50:02.227Z,5.18
2022-12-12T08:52:31.567Z,4.93
2022-12-12T08:54:59.469Z,4.94
2022-12-12T08:57:27.380Z,4.90
2022-12-12T08:59:55.300Z,4.67
2022-12-12T09:02:23.441Z,4.90
2022-12-12T09:04:51.442Z,5.01
2022-12-12T09:07:19.277Z,5.24
2022-12-12T09:09:48.505Z,4.89
2022-12-12T09:12:16.569Z,5.12
2022-12-12T09:14:44.496Z,4.96
2022-12-12T09:17:12.420Z,5.22
2022-12-12T09:19:41.068Z,5.67
2022-12-12T09:22:11.295Z,5.26
2022-12-12T09:24:39.436Z,5.48
2022-12-12T09:27:08.846Z,5.40
2022-12-12T09:29:36.707Z,5.40
2022-12-12T09:32:06.558Z,5.47
2022-12-12T09:34:34.435Z,5.75
2022-12-12T09:37:02.821Z,5.33
2022-12-12T09:39:30.822Z,4.80
2022-12-12T09:41:59.061Z,4.90
2022-12-12T09:44:28.692Z,5.06
2022-12-12T09:47:00.342Z,5.07
2022-12-12T09:49:41.536Z,5.00
2022-12-12T09:52:14.199Z,4.94
2022-12-12T09:54:42.056Z,5.14
2022-12-12T09:57:21.202Z,5.49
2022-12-12T09:59:52.991Z,5.66
2022-12-12T10:02:41.888Z,6.00
2022-12-12T10:05:20.112Z,6.46
2022-12-12T10:07:55.574Z,6.53
2022-12-12T10:10:25.965Z,6.50
2022-12-12T10:12:54.866Z,5.91
2022-12-12T10:15:30.991Z,5.64
2022-12-12T10:18:00.759Z,6.24
2022-12-12T10:20:30.244Z,6.26
2022-12-12T10:23:02.231Z,6.57
2022-12-12T10:25:39.246Z,6.46
2022-12-12T10:28:11.730Z,6.08
2022-12-12T10:30:52.811Z,6.24
2022-12-12T10:33:28.590Z,6.29
2022-12-12T10:36:02.071Z,7.43
2022-12-12T10:38:39.921Z,7.91
2022-12-12T10:41:13.141Z,7.59
2022-12-12T10:43:46.055Z,8.19
2022-12-12T10:46:24.862Z,8.54
2022-12-12T10:48:52.991Z,9.28
2022-12-12T10:51:22.731Z,10.01
2022-12-12T10:53:50.577Z,9.21
2022-12-12T10:56:22.561Z,8.47
2022-12-12T10:58:54.876Z,8.72
2022-12-12T11:01:52.477Z,9.40
2022-12-12T11:04:15.769Z,10.38
2022-12-12T11:06:47.106Z,9.64
2022-12-12T11:09:19.254Z,11.34
2022-12-12T11:11:58.280Z,12.26
2022-12-12T11:14:30.769Z,12.74
2022-12-12T11:16:59.951Z,13.17
2022-12-12T11:19:29.491Z,13.21
2022-12-12T11:22:04.476Z,12.64
2022-12-12T11:24:33.532Z,11.47
2022-12-12T11:27:03.402Z,12.52
2022-12-12T11:29:38.099Z,11.50
2022-12-12T11:32:13.588Z,10.80
2022-12-12T11:34:46.174Z,10.58
2022-12-12T11:37:16.815Z,9.86
2022-12-12T11:39:47.044Z,10.68
2022-12-12T11:42:21.464Z,12.95
2022-12-12T11:44:58.840Z,12.62
2022-12-12T11:47:29.678Z,11.34
2022-12-12T11:49:59.363Z,12.69
2022-12-12T11:52:30.596Z,13.01
2022-12-12T11:54:59.055Z,12.56
2022-12-12T11:57:52.652Z,12.64
2022-12-12T12:00:21.633Z,13.97
2022-12-12T12:03:12.517Z,16.61
2022-12-12T12:05:47.906Z,15.51
2022-12-12T12:08:28.818Z,12.28
2022-12-12T12:11:06.282Z,16.32
2022-12-12T12:13:48.200Z,15.37
2022-12-12T12:16:21.569Z,12.69
2022-12-12T12:18:58.431Z,10.28
2022-12-12T12:21:35.576Z,11.01
2022-12-12T12:24:20.783Z,11.48
2022-12-12T12:26:55.107Z,11.38
2022-12-12T12:29:40.594Z,12.63
2022-12-12T12:32:13.866Z,13.56
2022-12-12T12:34:52.598Z,11.68
2022-12-12T12:37:32.488Z,11.77
2022-12-12T12:40:12.659Z,13.48
2022-12-12T12:42:51.558Z,13.82
2022-12-12T12:45:24.456Z,12.64
2022-12-12T12:47:55.127Z,12.17
2022-12-12T12:50:26.563Z,10.91
2022-12-12T12:52:57.918Z,9.98
2022-12-12T12:55:30.126Z,9.57
2022-12-12T12:57:57.978Z,9.22
2022-12-12T13:00:30.090Z,8.91
2022-12-12T13:03:02.126Z,8.79
2022-12-12T13:05:34.884Z,10.28
2022-12-12T13:08:10.023Z,11.01
2022-12-12T13:10:41.412Z,12.74
2022-12-12T13:13:13.494Z,10.34
2022-12-12T13:15:43.403Z,9.12
2022-12-12T13:18:13.604Z,9.22
2022-12-12T13:20:45.824Z,9.06
2022-12-12T13:23:21.498Z,9.08
2022-12-12T13:25:54.232Z,8.71
2022-12-12T13:28:25.199Z,8.63
2022-12-12T13:31:12.581Z,8.11
2022-12-12T13:33:45.039Z,8.35
2022-12-12T13:36:18.412Z,8.36
2022-12-12T13:38:49.535Z,8.51
2022-12-12T13:41:17.504Z,8.22
2022-12-12T13:43:47.751Z,8.15
2022-12-12T13:46:36.646Z,8.12
2022-12-12T13:49:16.648Z,7.94
2022-12-12T13:51:46.456Z,8.62
2022-12-12T13:54:54.667Z,9.35
2022-12-12T13:57:27.668Z,11.10
2022-12-12T14:00:29.359Z,12.40
2022-12-12T14:03:02.043Z,11.35
2022-12-12T14:05:32.036Z,10.97
2022-12-12T14:08:05.810Z,10.19
2022-12-12T14:10:36.775Z,10.17
2022-12-12T14:13:19.607Z,11.16
2022-12-12T14:15:48.394Z,11.86
2022-12-12T14:18:24.719Z,10.09
2022-12-12T14:21:00.339Z,9.80
2022-12-12T14:23:32.148Z,9.47
2022-12-12T14:26:00.728Z,9.41
2022-12-12T14:28:29.536Z,9.16
2022-12-12T14:31:07.167Z,8.89
2022-12-12T14:33:53.704Z,9.05
2022-12-12T14:36:56.560Z,8.86
2022-12-12T14:39:45.332Z,8.74
2022-12-12T14:42:23.008Z,8.99
2022-12-12T14:44:51.183Z,9.22
2022-12-12T14:47:19.395Z,9.26
2022-12-12T14:49:47.270Z,9.53
2022-12-12T14:52:18.129Z,9.09
2022-12-12T14:54:47.481Z,8.79
2022-12-12T14:57:20.709Z,8.58
2022-12-12T14:59:49.115Z,8.44
2022-12-12T15:02:21.816Z,8.55
2022-12-12T15:04:52.104Z,8.68
2022-12-12T15:07:25.849Z,8.11
2022-12-12T15:09:55.145Z,7.68
2022-12-12T15:12:25.358Z,7.43
2022-12-12T15:14:55.751Z,7.39
2022-12-12T15:17:27.558Z,7.12
2022-12-12T15:19:57.474Z,6.85
2022-12-12T15:22:27.686Z,6.81
2022-12-12T15:24:58.990Z,6.81
2022-12-12T15:27:30.578Z,6.57
2022-12-12T15:29:58.918Z,6.47
2022-12-12T15:32:28.678Z,6.44
2022-12-12T15:35:03.169Z,6.32
2022-12-12T15:37:32.762Z,6.18
2022-12-12T15:40:24.379Z,5.92
2022-12-12T15:42:55.526Z,5.64
2022-12-12T15:45:27.444Z,5.50
2022-12-12T15:47:56.564Z,5.39
2022-12-12T15:50:27.117Z,5.37
2022-12-12T15:53:05.577Z,5.35
2022-12-12T15:55:35.859Z,5.31
2022-12-12T15:58:03.956Z,5.20
2022-12-12T16:00:34.877Z,5.05
2022-12-12T16:03:20.653Z,4.97
2022-12-12T16:06:03.041Z,4.92
2022-12-12T16:08:48.222Z,4.79
2022-12-12T16:11:42.736Z,4.71
2022-12-12T16:14:26.592Z,4.64
2022-12-12T16:16:58.588Z,4.53
2022-12-12T16:19:41.719Z,4.55
2022-12-12T16:22:16.755Z,4.38
2022-12-12T16:24:50.637Z,4.23
2022-12-12T16:27:19.917Z,4.24
2022-12-12T16:29:47.986Z,4.09
2022-12-12T16:32:17.911Z,4.05
2022-12-12T16:34:46.685Z,3.96
2022-12-12T16:37:15.667Z,3.80
2022-12-12T16:39:43.850Z,3.78
2022-12-12T16:42:14.435Z,3.65
2022-12-12T16:44:43.630Z,3.49
2022-12-12T16:47:15.915Z,3.35
2022-12-12T16:49:43.817Z,3.51
2022-12-12T16:52:13.066Z,3.47
2022-12-12T16:54:41.555Z,3.50
2022-12-12T16:57:09.937Z,3.46
2022-12-12T16:59:38.284Z,3.51
2022-12-12T17:02:18.048Z,3.44
2022-12-12T17:04:45.825Z,3.52
2022-12-12T17:07:13.937Z,3.53
2022-12-12T17:09:42.076Z,3.42
2022-12-12T17:12:11.742Z,3.43
2022-12-12T17:14:39.874Z,3.44
2022-12-12T17:17:09.129Z,3.40
2022-12-12T17:19:36.973Z,3.34
2022-12-12T17:22:04.856Z,3.17
2022-12-12T17:24:32.843Z,3.13
2022-12-12T17:27:00.635Z,3.13
2022-12-12T17:29:28.419Z,3.09
2022-12-12T17:31:56.343Z,3.19
2022-12-12T17:34:25.540Z,3.28
2022-12-12T17:36:53.411Z,3.22
2022-12-12T17:39:22.786Z,3.10
2022-12-12T17:41:50.921Z,3.22
2022-12-12T17:44:18.694Z,3.21
2022-12-12T17:46:46.560Z,3.04
2022-12-12T17:49:14.474Z,3.09
2022-12-12T17:51:43.661Z,2.98
2022-12-12T17:54:11.464Z,2.91
2022-12-12T17:56:39.951Z,2.83
2022-12-12T17:59:09.560Z,3.01
2022-12-12T18:01:37.669Z,3.01
2022-12-12T18:04:06.173Z,2.96
2022-12-12T18:06:36.061Z,2.65
2022-12-12T18:09:05.863Z,2.57
2022-12-12T18:11:35.681Z,2.54
2022-12-12T18:14:06.289Z,2.71
2022-12-12T18:16:35.033Z,2.48
2022-12-12T18:19:03.318Z,2.61
2022-12-12T18:21:59.882Z,2.64
2022-12-12T18:24:22.820Z,2.51
2022-12-12T18:26:52.826Z,2.51
2022-12-12T18:29:21.657Z,2.41
2022-12-12T18:31:49.956Z,2.39
2022-12-12T18:34:18.127Z,2.48
2022-12-12T18:36:46.080Z,2.42
2022-12-12T18:39:13.876Z,2.29
2022-12-12T18:41:43.214Z,2.15
2022-12-12T18:44:13.427Z,1.85
2022-12-12T18:46:43.376Z,1.76
2022-12-12T18:49:13.857Z,2.12
2022-12-12T18:51:42.210Z,2.06
2022-12-12T18:54:15.013Z,2.08
2022-12-12T18:56:46.616Z,2.16
2022-12-12T18:59:15.373Z,1.99
2022-12-12T19:01:43.749Z,1.90
2022-12-12T19:04:17.471Z,1.96
2022-12-12T19:06:49.088Z,1.91
2022-12-12T19:09:19.229Z,2.09
2022-12-12T19:11:48.697Z,2.08
2022-12-12T19:14:17.704Z,2.13
2022-12-12T19:16:46.249Z,1.94
2022-12-12T19:19:15.103Z,1.93
2022-12-12T19:21:44.283Z,1.86
2022-12-12T19:24:13.324Z,1.92
2022-12-12T19:26:43.695Z,1.57
2022-12-12T19:29:15.113Z,1.79
2022-12-12T19:31:43.312Z,1.90
2022-12-12T19:34:14.135Z,1.85
2022-12-12T19:36:42.445Z,1.64
2022-12-12T19:39:12.194Z,1.69
2022-12-12T19:41:40.389Z,1.61
2022-12-12T19:44:12.416Z,1.66
2022-12-12T19:46:43.045Z,1.60
2022-12-12T19:49:12.617Z,1.65
2022-12-12T19:51:40.668Z,1.41
2022-12-12T19:54:11.095Z,1.55
2022-12-12T19:56:41.770Z,1.48
2022-12-12T19:59:12.427Z,1.20
2022-12-12T20:01:42.252Z,1.31
2022-12-12T20:04:15.386Z,1.31
2022-12-12T20:06:45.917Z,0.96
2022-12-12T20:09:15.035Z,1.10
2022-12-12T20:11:45.178Z,1.36
2022-12-12T20:14:13.955Z,1.47
2022-12-12T20:16:43.674Z,1.46
2022-12-12T20:19:12.183Z,1.32
2022-12-12T20:24:31.908Z,1.27
2022-12-12T20:27:00.403Z,1.27
2022-12-12T20:29:28.766Z,1.03
2022-12-12T20:31:59.721Z,1.06
2022-12-12T20:34:28.118Z,1.31
2022-12-12T20:36:56.087Z,1.23
2022-12-12T20:39:25.061Z,1.30
2022-12-12T20:41:54.308Z,1.27
2022-12-12T20:44:23.309Z,1.28
2022-12-12T20:46:51.221Z,1.17
2022-12-12T20:49:22.453Z,1.18
2022-12-12T20:51:58.459Z,1.11
2022-12-12T20:54:27.800Z,1.06
2022-12-12T20:56:55.968Z,0.86
2022-12-12T20:59:24.056Z,0.96
2022-12-12T21:01:52.184Z,0.86
2022-12-12T21:04:21.915Z,0.87
2022-12-12T21:06:51.244Z,0.95
2022-12-12T21:09:25.756Z,1.02
2022-12-12T21:11:55.794Z,1.06
2022-12-12T21:14:24.801Z,1.00
2022-12-12T21:16:52.937Z,0.84
2022-12-12T21:19:23.377Z,0.84
2022-12-12T21:21:52.072Z,1.00
2022-12-12T21:24:20.511Z,1.06
2022-12-12T21:26:49.122Z,0.93
2022-12-12T21:29:17.352Z,0.70
2022-12-12T21:31:50.765Z,0.57
2022-12-12T21:34:19.958Z,0.84
2022-12-12T21:36:51.289Z,0.73
2022-12-12T21:39:19.262Z,0.74
2022-12-12T21:41:47.332Z,0.69
2022-12-12T21:44:15.544Z,0.77
2022-12-12T21:46:44.264Z,0.85
2022-12-12T21:49:26.678Z,0.83
2022-12-12T21:51:57.648Z,0.76
2022-12-12T21:54:26.219Z,0.56
2022-12-12T21:56:54.084Z,0.65
2022-12-12T21:59:21.901Z,0.66
2022-12-12T22:01:49.848Z,0.54
2022-12-12T22:04:17.918Z,0.29
2022-12-12T22:06:46.635Z,0.61
2022-12-12T22:09:15.923Z,0.50
2022-12-12T22:11:50.787Z,0.57
2022-12-12T22:14:21.021Z,0.60
2022-12-12T22:16:49.061Z,0.41
2022-12-12T22:19:18.360Z,0.60
2022-12-12T22:21:47.543Z,0.41
2022-12-12T22:24:17.381Z,0.21
2022-12-12T22:26:46.905Z,0.33
2022-12-12T22:29:16.673Z,0.50
2022-12-12T22:31:45.320Z,0.51
2022-12-12T22:34:15.522Z,0.31
2022-12-12T22:36:44.643Z,0.34
2022-12-12T22:39:16.420Z,0.41
2022-12-12T22:41:44.562Z,0.44
2022-12-12T22:44:16.030Z,0.39
2022-12-12T22:46:44.663Z,0.31
2022-12-12T22:49:14.201Z,0.32
2022-12-12T22:51:42.821Z,0.32
2022-12-12T22:54:10.652Z,0.31
2022-12-12T22:56:40.667Z,0.37
2022-12-12T22:59:09.230Z,0.40
2022-12-12T23:01:37.237Z,0.37
2022-12-12T23:04:05.463Z,0.36
2022-12-12T23:06:36.632Z,0.27
2022-12-12T23:09:07.186Z,0.13
2022-12-12T23:11:36.676Z,0.16
2022-12-12T23:14:08.214Z,0.18
2022-12-12T23:16:36.969Z,0.04
2022-12-12T23:19:05.822Z,0.19
2022-12-12T23:21:35.116Z,0.07
2022-12-12T23:24:03.385Z,0.21
2022-12-12T23:26:32.191Z,0.10
2022-12-12T23:29:00.420Z,-0.01
2022-12-12T23:31:31.796Z,-0.24
2022-12-12T23:34:01.736Z,0.03
2022-12-12T23:36:30.376Z,-0.04
2022-12-12T23:38:59.335Z,0.04
2022-12-12T23:41:27.683Z,0.01
2022-12-12T23:43:55.837Z,-0.02
2022-12-12T23:46:38.079Z,-0.07
2022-12-12T23:49:08.737Z,-0.18
2022-12-12T23:51:38.454Z,-0.14
2022-12-12T23:54:07.853Z,-0.22
2022-12-12T23:56:37.762Z,-0.07
2022-12-12T23:59:05.979Z,-0.43
